Sebes, Romania
Current Conditions -  °F | °C
As of 9:00 PM on Friday 24 Oct 2014 (Local Time) from LRSB Reporting Station
Broken Clouds Broken Clouds  
Wind Chill: 37°   Ceiling: 2900
Heat Index: 43°   Visibility: 6mi
Dew Point: 36°   Wind: 9mph
Humidity: 76%   Direction: 120°ESE
Pressure: 30.09"   Gusts: NA
Location:  45.96°N, 23.57°E
Report Text: LRSB 241800Z 12008KT 9999 BKN029 06/02 Q1019
Loading
Personal Weather Stations






























Interactive Weather Map
Tropical Storm Tracking
New forecast layout! Learn more

10-Day Weather Forecast

Advertisements
Track Severe Weather on mobile